Time;durP1;ratioP1;P1;durP2;ratioP2;P2;SDS_P1;SDS_P2;PMS_P1;PMS_P2;Temp;Humidity;BMP_temperature;BMP_pressure;BME280_temperature;BME280_humidity;BME280_pressure;Samples;Min_cycle;Max_cycle;Signal;HPM_P1;HPM_P2
2024/03/14 00:02:11;;;;;;;0.30;0.30;;;;;;;9.60;100.00;99331.53;5026038;28;20082;-58
2024/03/14 00:04:39;;;;;;;0.17;0.17;;;;;;;9.54;100.00;99332.47;5036508;28;20059;-58
2024/03/14 00:07:07;;;;;;;0.20;0.20;;;;;;;9.53;100.00;99333.50;5034729;28;20565;-58
2024/03/14 00:09:34;;;;;;;0.20;0.20;;;;;;;9.48;100.00;99336.06;5033547;28;20458;-58
2024/03/14 00:12:02;;;;;;;0.30;0.30;;;;;;;9.33;100.00;99333.03;5052593;28;20032;-58
2024/03/14 00:14:29;;;;;;;0.30;0.30;;;;;;;9.34;100.00;99334.69;5040012;28;20040;-58
2024/03/14 00:16:56;;;;;;;0.10;0.10;;;;;;;9.35;100.00;99337.09;5042944;28;20037;-58
2024/03/14 00:19:24;;;;;;;0.20;0.20;;;;;;;9.42;100.00;99339.66;5035802;28;20136;-58
2024/03/14 00:21:54;;;;;;;0.30;0.30;;;;;;;9.18;100.00;99331.59;5037588;28;20045;-58
2024/03/14 00:24:23;;;;;;;0.20;0.20;;;;;;;9.13;100.00;99334.16;5018560;28;20503;-57
2024/03/14 00:26:50;;;;;;;0.20;0.20;;;;;;;9.18;100.00;99330.81;5034979;28;20045;-59
2024/03/14 00:29:17;;;;;;;0.20;0.20;;;;;;;9.18;100.00;99334.28;5042558;28;20119;-58
2024/03/14 00:31:45;;;;;;;0.30;0.30;;;;;;;9.12;100.00;99335.22;5043724;28;20127;-58
2024/03/14 00:34:12;;;;;;;0.30;0.30;;;;;;;9.27;100.00;99330.22;5049175;28;20102;-58
2024/03/14 00:36:39;;;;;;;0.30;0.30;;;;;;;9.23;100.00;99328.25;5041134;28;20123;-58
2024/03/14 00:39:07;;;;;;;0.20;0.20;;;;;;;9.19;100.00;99327.91;5037975;28;20048;-57
2024/03/14 00:41:34;;;;;;;0.20;0.20;;;;;;;9.05;100.00;99323.81;5041214;28;20045;-57
2024/03/14 00:44:03;;;;;;;0.30;0.30;;;;;;;8.95;100.00;99318.22;5032133;28;20052;-58
2024/03/14 00:46:33;;;;;;;0.30;0.30;;;;;;;8.92;100.00;99318.69;5045203;28;20562;-58
2024/03/14 00:49:00;;;;;;;0.30;0.30;;;;;;;8.84;100.00;99317.97;5035981;28;20048;-57
2024/03/14 00:51:27;;;;;;;0.30;0.30;;;;;;;8.76;100.00;99312.97;5028552;28;20045;-59
2024/03/14 00:53:54;;;;;;;0.20;0.20;;;;;;;8.78;100.00;99310.03;5011901;28;20055;-59
2024/03/14 00:56:23;;;;;;;0.22;0.22;;;;;;;8.73;100.00;99302.69;5041009;28;20420;-60
2024/03/14 00:58:50;;;;;;;0.20;0.20;;;;;;;8.69;100.00;99306.88;5035341;28;20059;-59
2024/03/14 01:01:17;;;;;;;0.30;0.30;;;;;;;8.67;100.00;99306.28;5024270;28;20547;-59
2024/03/14 01:03:44;;;;;;;0.20;0.20;;;;;;;8.65;100.00;99295.00;5040258;28;20041;-58
2024/03/14 01:06:12;;;;;;;0.30;0.30;;;;;;;8.60;100.00;99292.22;5031091;28;20049;-58
2024/03/14 01:08:40;;;;;;;0.20;0.20;;;;;;;8.63;100.00;99294.41;5018643;28;20403;-58
2024/03/14 01:11:07;;;;;;;0.20;0.20;;;;;;;8.72;100.00;99295.75;5037721;28;20045;-57
2024/03/14 01:13:34;;;;;;;0.28;0.28;;;;;;;8.74;100.00;99298.19;5033273;28;20135;-58
2024/03/14 01:16:01;;;;;;;0.20;0.20;;;;;;;8.76;100.00;99296.91;5042668;28;20040;-58
2024/03/14 01:18:29;;;;;;;0.28;0.28;;;;;;;8.71;100.00;99288.78;5040525;28;20114;-57
2024/03/14 01:20:56;;;;;;;0.30;0.30;;;;;;;8.69;100.00;99296.19;5034705;28;20040;-58
2024/03/14 01:23:23;;;;;;;0.30;0.30;;;;;;;8.69;100.00;99290.84;5031037;28;20045;-58
2024/03/14 01:25:50;;;;;;;0.20;0.20;;;;;;;8.68;100.00;99281.19;5025723;28;20041;-58
2024/03/14 01:28:17;;;;;;;0.30;0.30;;;;;;;8.64;100.00;99283.53;5052281;28;20046;-58
2024/03/14 01:30:45;;;;;;;0.30;0.30;;;;;;;8.54;100.00;99275.25;5035233;28;20033;-58
2024/03/14 01:33:12;;;;;;;0.28;0.28;;;;;;;8.51;100.00;99267.69;5032207;28;20367;-58
2024/03/14 01:35:39;;;;;;;0.17;0.17;;;;;;;8.48;100.00;99264.66;5013568;28;20040;-58
2024/03/14 01:38:06;;;;;;;0.30;0.30;;;;;;;8.48;100.00;99259.31;5015439;28;20615;-58
2024/03/14 01:40:33;;;;;;;0.30;0.30;;;;;;;8.53;100.00;99259.44;5034568;28;20128;-57
2024/03/14 01:43:03;;;;;;;0.30;0.30;;;;;;;8.69;100.00;99256.13;5028488;28;20110;-58
2024/03/14 01:45:30;;;;;;;0.30;0.30;;;;;;;8.70;100.00;99255.06;5022746;28;20052;-58
2024/03/14 01:47:58;;;;;;;0.30;0.30;;;;;;;8.78;100.00;99259.25;5031963;28;20723;-58
2024/03/14 01:50:25;;;;;;;0.30;0.30;;;;;;;8.75;100.00;99267.75;5036553;28;20055;-58
2024/03/14 01:52:52;;;;;;;0.40;0.40;;;;;;;8.73;100.00;99269.81;5015842;28;20048;-58
2024/03/14 01:55:19;;;;;;;0.40;0.40;;;;;;;8.81;100.00;99273.00;5032531;28;20451;-58
2024/03/14 01:57:46;;;;;;;0.28;0.28;;;;;;;8.87;100.00;99265.91;5036171;28;20718;-58
2024/03/14 02:00:14;;;;;;;0.30;0.30;;;;;;;8.81;100.00;99254.28;5070926;28;20076;-57
2024/03/14 02:02:45;;;;;;;0.40;0.40;;;;;;;8.77;100.00;99260.31;5037321;28;20097;-58
2024/03/14 02:05:13;;;;;;;0.20;0.20;;;;;;;8.82;100.00;99269.25;5053818;28;20049;-57
2024/03/14 02:07:40;;;;;;;0.30;0.30;;;;;;;8.71;100.00;99256.72;5031146;28;20037;-61
2024/03/14 02:10:08;;;;;;;0.20;0.20;;;;;;;8.66;100.00;99253.88;5036740;28;20095;-57
2024/03/14 02:12:35;;;;;;;0.20;0.20;;;;;;;8.62;100.00;99252.72;5024979;28;20079;-57
2024/03/14 02:15:02;;;;;;;0.30;0.30;;;;;;;8.62;100.00;99250.06;5035681;28;20191;-58
2024/03/14 02:17:30;;;;;;;0.20;0.20;;;;;;;8.61;100.00;99251.91;5048332;28;20064;-57
2024/03/14 02:19:57;;;;;;;0.30;0.30;;;;;;;8.54;100.00;99255.75;5032636;28;20045;-57
2024/03/14 02:22:27;;;;;;;0.28;0.28;;;;;;;8.54;100.00;99256.53;5031037;28;20694;-57
2024/03/14 02:24:54;;;;;;;0.30;0.30;;;;;;;8.54;100.00;99253.88;5037239;28;20073;-57
2024/03/14 02:27:21;;;;;;;0.30;0.30;;;;;;;8.34;100.00;99254.13;5037128;28;20068;-58
2024/03/14 02:29:48;;;;;;;0.30;0.30;;;;;;;8.26;100.00;99257.09;5038341;28;20078;-57
2024/03/14 02:32:15;;;;;;;0.40;0.40;;;;;;;8.16;100.00;99249.66;5033845;28;20045;-58
2024/03/14 02:34:42;;;;;;;0.30;0.30;;;;;;;8.20;100.00;99255.34;5030942;28;20064;-57
2024/03/14 02:37:11;;;;;;;0.20;0.20;;;;;;;8.21;100.00;99256.97;5036920;28;20047;-56
2024/03/14 02:39:38;;;;;;;0.30;0.30;;;;;;;8.18;100.00;99252.91;5031514;28;20049;-57
2024/03/14 02:42:06;;;;;;;0.30;0.30;;;;;;;8.16;100.00;99256.81;5026004;28;20669;-56
2024/03/14 02:44:33;;;;;;;0.30;0.30;;;;;;;8.20;100.00;99250.00;5032896;28;20053;-57
2024/03/14 02:47:00;;;;;;;0.30;0.30;;;;;;;8.20;100.00;99240.13;5036622;28;20074;-58
2024/03/14 02:49:28;;;;;;;0.30;0.30;;;;;;;8.23;100.00;99238.88;5036536;28;20041;-56
2024/03/14 02:51:55;;;;;;;0.30;0.30;;;;;;;8.23;100.00;99233.53;5017258;28;20041;-56
2024/03/14 02:54:22;;;;;;;0.30;0.30;;;;;;;8.24;100.00;99239.69;5017052;28;20483;-57
2024/03/14 02:56:49;;;;;;;0.30;0.30;;;;;;;8.19;100.00;99227.03;5034680;28;20123;-56
2024/03/14 02:59:17;;;;;;;0.20;0.20;;;;;;;8.13;100.00;99233.25;5066396;28;20057;-57
2024/03/14 03:01:45;;;;;;;0.30;0.30;;;;;;;8.10;100.00;99239.88;5030247;28;20201;-57
2024/03/14 03:04:12;;;;;;;0.30;0.30;;;;;;;8.06;100.00;99228.00;5033129;28;20214;-56
2024/03/14 03:06:44;;;;;;;0.40;0.40;;;;;;;8.05;100.00;99238.94;5038329;28;20150;-57
2024/03/14 03:09:12;;;;;;;0.20;0.20;;;;;;;8.15;100.00;99242.69;5031200;28;20131;-57
2024/03/14 03:11:39;;;;;;;0.40;0.40;;;;;;;8.05;100.00;99237.06;5031816;28;20041;-57
2024/03/14 03:14:06;;;;;;;0.20;0.20;;;;;;;8.02;100.00;99236.72;5026888;28;20658;-57
2024/03/14 03:16:34;;;;;;;0.40;0.40;;;;;;;8.03;100.00;99236.47;5025281;28;20052;-57
2024/03/14 03:19:01;;;;;;;0.30;0.30;;;;;;;8.11;100.00;99232.66;5037671;28;20041;-57
2024/03/14 03:21:28;;;;;;;0.22;0.22;;;;;;;8.16;100.00;99232.81;5039122;28;20491;-57
2024/03/14 03:23:56;;;;;;;0.40;0.40;;;;;;;7.98;100.00;99234.47;5034400;28;20124;-56
2024/03/14 03:26:22;;;;;;;0.30;0.30;;;;;;;7.99;100.00;99228.09;5040475;28;20099;-57
2024/03/14 03:28:50;;;;;;;0.30;0.30;;;;;;;7.97;100.00;99227.50;5036660;28;20877;-57
2024/03/14 03:31:16;;;;;;;0.30;0.30;;;;;;;7.93;100.00;99221.00;5038006;28;20041;-57
2024/03/14 03:33:44;;;;;;;0.20;0.20;;;;;;;7.97;100.00;99218.69;5042127;28;20120;-57
2024/03/14 03:36:11;;;;;;;0.20;0.20;;;;;;;8.04;100.00;99229.28;5015871;28;20537;-57
2024/03/14 03:38:38;;;;;;;0.30;0.30;;;;;;;8.09;100.00;99213.41;5041741;28;20049;-57
2024/03/14 03:41:06;;;;;;;0.20;0.20;;;;;;;8.09;100.00;99221.44;5036729;28;20712;-57
2024/03/14 03:43:33;;;;;;;0.35;0.35;;;;;;;8.06;100.00;99221.84;5048610;28;20055;-57
2024/03/14 03:45:59;;;;;;;0.30;0.30;;;;;;;8.07;100.00;99218.97;5039177;28;20095;-57
2024/03/14 03:48:26;;;;;;;0.30;0.30;;;;;;;8.10;100.00;99212.38;5031028;28;20476;-57
2024/03/14 03:50:54;;;;;;;0.20;0.20;;;;;;;8.11;100.00;99213.97;5041113;28;20044;-57
2024/03/14 03:53:20;;;;;;;0.40;0.40;;;;;;;8.04;100.00;99219.44;5034335;28;20449;-57
2024/03/14 03:55:49;;;;;;;0.28;0.28;;;;;;;8.06;100.00;99219.19;5044111;28;20130;-57
2024/03/14 03:58:15;;;;;;;0.30;0.30;;;;;;;8.02;100.00;99220.69;5046672;28;20133;-57
2024/03/14 04:00:45;;;;;;;0.40;0.40;;;;;;;7.89;100.00;99222.50;5034834;28;20633;-57
2024/03/14 04:03:11;;;;;;;0.32;0.32;;;;;;;7.96;100.00;99217.88;5043710;28;20044;-57
2024/03/14 04:05:38;;;;;;;0.40;0.40;;;;;;;7.86;100.00;99222.13;5064504;28;20048;-57
2024/03/14 04:08:05;;;;;;;0.30;0.30;;;;;;;7.74;100.00;99208.72;5030224;28;20132;-57
2024/03/14 04:10:33;;;;;;;0.30;0.30;;;;;;;7.67;100.00;99208.81;5038422;28;20588;-57
2024/03/14 04:13:00;;;;;;;0.20;0.20;;;;;;;7.68;100.00;99204.28;5066177;28;20064;-57
2024/03/14 04:15:29;;;;;;;0.30;0.30;;;;;;;7.64;100.00;99203.09;5048005;28;20041;-58
2024/03/14 04:17:56;;;;;;;0.25;0.25;;;;;;;7.54;100.00;99199.13;5018647;28;20275;-57
2024/03/14 04:20:26;;;;;;;0.30;0.30;;;;;;;7.54;100.00;99204.44;5043220;28;20048;-55
2024/03/14 04:22:53;;;;;;;0.30;0.30;;;;;;;7.50;100.00;99202.44;5041665;28;20052;-58
2024/03/14 04:25:20;;;;;;;0.38;0.38;;;;;;;7.59;100.00;99200.28;5032039;28;20063;-57
2024/03/14 04:27:51;;;;;;;0.30;0.30;;;;;;;7.62;100.00;99199.84;5037135;28;20052;-58
2024/03/14 04:30:20;;;;;;;0.40;0.40;;;;;;;7.45;100.00;99200.44;5040949;28;20124;-56
2024/03/14 04:32:50;;;;;;;0.20;0.20;;;;;;;7.52;100.00;99198.50;5027527;28;20047;-57
2024/03/14 04:35:18;;;;;;;0.40;0.40;;;;;;;7.51;100.00;99196.06;5018623;28;20049;-56
2024/03/14 04:37:47;;;;;;;0.30;0.30;;;;;;;7.49;100.00;99201.63;5035841;28;20139;-57
2024/03/14 04:40:14;;;;;;;0.30;0.30;;;;;;;7.49;100.00;99195.50;5028630;28;20040;-57
2024/03/14 04:42:41;;;;;;;0.40;0.40;;;;;;;7.43;100.00;99191.84;5034480;28;20048;-57
2024/03/14 04:45:11;;;;;;;0.30;0.30;;;;;;;7.37;100.00;99187.41;5034785;28;20047;-57
2024/03/14 04:47:38;;;;;;;0.30;0.30;;;;;;;7.30;100.00;99192.00;5017186;28;20408;-57
2024/03/14 04:50:08;;;;;;;0.32;0.32;;;;;;;7.34;100.00;99195.88;5040695;28;20045;-57
2024/03/14 04:52:35;;;;;;;0.30;0.30;;;;;;;7.29;100.00;99193.06;5037405;28;20590;-57
2024/03/14 04:55:05;;;;;;;0.50;0.50;;;;;;;7.38;100.00;99193.56;5015540;28;20041;-58
2024/03/14 04:57:33;;;;;;;0.35;0.35;;;;;;;7.45;100.00;99192.44;5039490;28;20126;-58
2024/03/14 05:00:00;;;;;;;0.30;0.30;;;;;;;7.12;100.00;99190.94;5036285;28;20047;-57
2024/03/14 05:02:29;;;;;;;0.30;0.30;;;;;;;7.03;100.00;99197.59;5029722;28;20102;-57
2024/03/14 05:04:57;;;;;;;0.30;0.30;;;;;;;7.01;100.00;99194.31;5032982;28;20063;-57
2024/03/14 05:07:26;;;;;;;0.30;0.30;;;;;;;7.11;100.00;99210.66;5034204;28;20127;-57
2024/03/14 05:09:54;;;;;;;0.50;0.50;;;;;;;7.24;100.00;99200.88;5022020;28;20080;-57
2024/03/14 05:12:22;;;;;;;0.40;0.40;;;;;;;7.13;100.00;99208.56;5016601;28;20040;-57
2024/03/14 05:14:49;;;;;;;0.40;0.40;;;;;;;7.12;100.00;99216.78;5020643;28;20109;-57
2024/03/14 05:17:16;;;;;;;0.40;0.40;;;;;;;7.00;100.00;99206.03;5033854;28;20060;-57
2024/03/14 05:19:44;;;;;;;0.30;0.30;;;;;;;6.96;100.00;99212.03;5019448;28;20132;-58
2024/03/14 05:22:11;;;;;;;0.35;0.35;;;;;;;7.02;100.00;99211.97;5027555;28;20041;-57
2024/03/14 05:24:38;;;;;;;0.40;0.40;;;;;;;7.09;100.00;99215.38;5056755;28;20105;-57
2024/03/14 05:27:06;;;;;;;0.40;0.40;;;;;;;7.18;100.00;99217.75;5030045;28;20044;-58
2024/03/14 05:29:33;;;;;;;0.30;0.30;;;;;;;7.29;100.00;99220.53;5038699;28;20048;-57
2024/03/14 05:32:00;;;;;;;0.32;0.32;;;;;;;7.31;100.00;99213.13;5040211;28;20044;-57
2024/03/14 05:34:27;;;;;;;0.40;0.40;;;;;;;7.36;100.00;99217.75;5052494;28;20068;-56
2024/03/14 05:36:54;;;;;;;0.30;0.30;;;;;;;7.55;100.00;99216.72;5033093;28;20040;-58
2024/03/14 05:39:24;;;;;;;0.30;0.30;;;;;;;7.56;100.00;99207.72;5043371;28;20044;-57
2024/03/14 05:41:51;;;;;;;0.25;0.25;;;;;;;7.65;100.00;99213.53;5034719;28;20102;-58
2024/03/14 05:44:19;;;;;;;0.20;0.20;;;;;;;7.60;100.00;99213.41;5039584;28;20567;-57
2024/03/14 05:46:47;;;;;;;0.30;0.30;;;;;;;7.65;100.00;99213.53;5030458;28;20064;-57
2024/03/14 05:49:14;;;;;;;0.20;0.20;;;;;;;7.71;100.00;99214.50;5033117;28;20040;-58
2024/03/14 05:51:41;;;;;;;0.30;0.30;;;;;;;7.76;100.00;99215.47;5054320;28;20491;-58
2024/03/14 05:54:09;;;;;;;0.32;0.32;;;;;;;7.82;100.00;99211.09;5027336;28;20098;-58
2024/03/14 05:56:37;;;;;;;0.30;0.30;;;;;;;7.78;100.00;99209.91;5039351;28;20032;-58
2024/03/14 05:59:04;;;;;;;0.40;0.40;;;;;;;7.86;100.00;99212.28;5036759;28;20044;-58
2024/03/14 06:01:31;;;;;;;0.35;0.35;;;;;;;7.97;100.00;99208.84;5038448;28;20098;-58
2024/03/14 06:03:58;;;;;;;0.30;0.30;;;;;;;8.08;100.00;99201.09;5021810;28;20041;-58
2024/03/14 06:06:26;;;;;;;0.30;0.30;;;;;;;8.13;100.00;99206.56;5034934;28;20045;-58
2024/03/14 06:08:53;;;;;;;0.20;0.20;;;;;;;8.12;100.00;99204.94;5040365;28;20582;-58
2024/03/14 06:11:22;;;;;;;0.40;0.40;;;;;;;7.92;100.00;99200.69;5037034;28;20513;-58
2024/03/14 06:13:50;;;;;;;0.30;0.30;;;;;;;7.96;100.00;99196.53;5038552;28;20045;-58
2024/03/14 06:16:17;;;;;;;0.25;0.25;;;;;;;7.90;100.00;99201.97;5036564;28;20591;-58
2024/03/14 06:18:45;;;;;;;0.30;0.30;;;;;;;7.99;100.00;99196.09;5032140;28;20048;-58
2024/03/14 06:21:12;;;;;;;0.40;0.40;;;;;;;7.94;100.00;99190.59;5041366;28;20054;-58
2024/03/14 06:23:39;;;;;;;0.30;0.30;;;;;;;7.82;100.00;99197.75;5040457;28;20785;-58
2024/03/14 06:26:06;;;;;;;0.40;0.40;;;;;;;7.75;100.00;99200.50;5034563;28;20047;-58
2024/03/14 06:28:34;;;;;;;0.32;0.32;;;;;;;7.98;100.00;99194.44;5032937;28;20136;-58
2024/03/14 06:31:03;;;;;;;0.30;0.30;;;;;;;8.08;100.00;99198.41;5018873;28;20033;-58
2024/03/14 06:33:31;;;;;;;0.30;0.30;;;;;;;8.19;100.00;99195.00;5039387;28;20072;-58
2024/03/14 06:35:58;;;;;;;0.30;0.30;;;;;;;8.14;100.00;99194.88;5026819;28;20045;-58
2024/03/14 06:38:28;;;;;;;0.38;0.38;;;;;;;8.18;100.00;99194.16;5039060;28;20045;-58
2024/03/14 06:40:55;;;;;;;0.30;0.30;;;;;;;8.35;100.00;99193.53;5039108;28;20467;-57
2024/03/14 06:43:23;;;;;;;0.20;0.20;;;;;;;8.37;100.00;99197.59;5033530;28;20131;-58
2024/03/14 06:45:50;;;;;;;0.30;0.30;;;;;;;8.48;100.00;99198.69;5030566;28;20056;-58
2024/03/14 06:48:17;;;;;;;0.30;0.30;;;;;;;8.45;100.00;99196.47;5033916;28;20267;-58
2024/03/14 06:50:45;;;;;;;0.30;0.30;;;;;;;8.56;100.00;99195.69;5043853;28;20129;-58
2024/03/14 06:53:12;;;;;;;0.30;0.30;;;;;;;8.66;100.00;99194.28;5041421;28;20052;-58
2024/03/14 06:55:42;;;;;;;0.20;0.20;;;;;;;8.75;100.00;99193.72;5026714;28;20635;-58
2024/03/14 06:58:09;;;;;;;0.30;0.30;;;;;;;8.74;100.00;99192.09;5022321;28;20082;-59
2024/03/14 07:00:40;;;;;;;0.20;0.20;;;;;;;8.69;100.00;99192.00;5025416;28;20123;-58
2024/03/14 07:03:07;;;;;;;0.30;0.30;;;;;;;8.69;100.00;99189.31;5036061;28;20539;-60
2024/03/14 07:05:34;;;;;;;0.20;0.20;;;;;;;8.83;100.00;99189.91;5035759;28;20495;-60
2024/03/14 07:08:03;;;;;;;0.30;0.30;;;;;;;8.87;100.00;99192.94;5035902;28;20685;-59
2024/03/14 07:10:30;;;;;;;0.30;0.30;;;;;;;8.76;100.00;99190.03;5059220;28;20032;-58
2024/03/14 07:12:58;;;;;;;0.30;0.30;;;;;;;9.02;100.00;99199.44;5033786;28;20038;-60
2024/03/14 07:15:25;;;;;;;0.28;0.28;;;;;;;9.12;100.00;99190.84;5022751;28;20120;-59
2024/03/14 07:17:58;;;;;;;0.20;0.20;;;;;;;8.96;100.00;99191.53;5036793;28;20044;-59
2024/03/14 07:20:33;;;;;;;0.20;0.20;;;;;;;9.25;100.00;99198.59;5043110;28;20048;-59
2024/03/14 07:23:00;;;;;;;0.30;0.30;;;;;;;9.36;100.00;99196.97;5029846;28;20395;-59
2024/03/14 07:25:28;;;;;;;0.30;0.30;;;;;;;9.46;100.00;99201.69;5031867;28;20044;-58
2024/03/14 07:27:56;;;;;;;0.17;0.17;;;;;;;9.75;100.00;99191.06;5044717;28;20192;-59
2024/03/14 07:30:24;;;;;;;0.30;0.30;;;;;;;9.59;100.00;99190.75;5021178;28;20072;-59
2024/03/14 07:32:51;;;;;;;0.30;0.30;;;;;;;9.49;100.00;99194.03;5030742;28;20107;-59
2024/03/14 07:35:19;;;;;;;0.30;0.30;;;;;;;9.52;100.00;99199.97;5029246;28;20125;-58
2024/03/14 07:37:47;;;;;;;0.20;0.20;;;;;;;9.63;100.00;99194.56;5017559;28;20045;-58
2024/03/14 07:40:16;;;;;;;0.20;0.20;;;;;;;9.43;100.00;99194.16;5044303;28;20051;-59
2024/03/14 07:42:44;;;;;;;0.30;0.30;;;;;;;9.59;100.00;99192.63;5032981;28;20402;-57
2024/03/14 07:45:16;;;;;;;0.30;0.30;;;;;;;9.09;100.00;99188.63;5070756;28;20144;-60
2024/03/14 07:47:44;;;;;;;0.30;0.30;;;;;;;9.73;100.00;99185.94;5036544;28;20052;-60
2024/03/14 07:50:11;;;;;;;0.30;0.30;;;;;;;10.20;100.00;99187.63;5038452;28;20523;-59
2024/03/14 07:52:39;;;;;;;0.30;0.30;;;;;;;9.70;100.00;99191.75;5040945;28;20040;-59
2024/03/14 07:55:09;;;;;;;0.30;0.30;;;;;;;10.00;100.00;99188.84;5051505;28;20484;-59
2024/03/14 07:57:36;;;;;;;0.30;0.30;;;;;;;9.66;100.00;99183.41;5031929;28;20570;-59
2024/03/14 08:00:05;;;;;;;0.30;0.30;;;;;;;9.83;100.00;99188.00;5044573;28;20048;-58
2024/03/14 08:02:34;;;;;;;0.22;0.22;;;;;;;9.69;100.00;99188.28;5035463;28;20051;-58
2024/03/14 08:05:06;;;;;;;0.20;0.20;;;;;;;10.15;100.00;99191.81;5045171;28;20051;-58
2024/03/14 08:07:33;;;;;;;0.40;0.40;;;;;;;10.38;100.00;99190.09;5038565;28;20054;-59
2024/03/14 08:10:01;;;;;;;0.20;0.20;;;;;;;10.20;100.00;99193.78;5025660;28;20499;-58
2024/03/14 08:12:31;;;;;;;0.20;0.20;;;;;;;10.08;100.00;99195.69;5045936;28;20128;-59
2024/03/14 08:15:10;;;;;;;0.22;0.22;;;;;;;10.07;100.00;99194.88;5037018;28;20056;-59
2024/03/14 08:17:39;;;;;;;0.20;0.20;;;;;;;10.17;100.00;99204.16;5061808;28;20071;-59
2024/03/14 08:20:09;;;;;;;0.20;0.20;;;;;;;10.35;100.00;99201.31;5041233;28;20513;-59
2024/03/14 08:22:36;;;;;;;0.20;0.20;;;;;;;10.52;100.00;99202.13;5041958;28;20060;-59
2024/03/14 08:25:15;;;;;;;0.30;0.30;;;;;;;10.64;100.00;99193.22;5033845;28;20111;-59
2024/03/14 08:27:43;;;;;;;0.20;0.20;;;;;;;10.85;100.00;99197.81;5036065;28;20151;-59
2024/03/14 08:30:11;;;;;;;0.30;0.30;;;;;;;10.74;100.00;99199.53;5041743;28;20135;-59
2024/03/14 08:32:38;;;;;;;0.20;0.20;;;;;;;10.97;100.00;99195.88;5032983;28;20079;-59
2024/03/14 08:35:06;;;;;;;0.20;0.20;;;;;;;10.85;100.00;99197.03;5026129;28;20432;-59
2024/03/14 08:37:33;;;;;;;0.20;0.20;;;;;;;10.91;100.00;99199.53;5032412;28;20128;-59
2024/03/14 08:40:00;;;;;;;0.20;0.20;;;;;;;11.52;100.00;99196.88;5038084;28;20152;-59
2024/03/14 08:42:31;;;;;;;0.20;0.20;;;;;;;11.66;100.00;99191.97;5036976;28;20041;-59
2024/03/14 08:44:58;;;;;;;0.20;0.20;;;;;;;12.37;100.00;99196.50;5038142;28;20756;-59
2024/03/14 08:47:25;;;;;;;0.20;0.20;;;;;;;11.83;100.00;99194.56;5039676;28;20127;-59
2024/03/14 08:49:52;;;;;;;0.30;0.30;;;;;;;12.50;100.00;99190.69;5045860;28;20040;-59
2024/03/14 08:52:21;;;;;;;0.20;0.20;;;;;;;13.01;100.00;99193.78;5034537;28;20048;-59
2024/03/14 08:54:49;;;;;;;0.20;0.20;;;;;;;13.47;99.39;99199.44;5041874;28;20045;-59
2024/03/14 08:57:18;;;;;;;0.25;0.25;;;;;;;13.97;98.23;99200.72;5036073;28;20164;-59
2024/03/14 08:59:45;;;;;;;0.20;0.20;;;;;;;14.07;92.71;99191.84;5042483;28;20386;-59
2024/03/14 09:02:12;;;;;;;0.20;0.20;;;;;;;14.59;91.29;99198.97;5036936;28;20106;-59
2024/03/14 09:04:46;;;;;;;0.20;0.20;;;;;;;14.83;90.92;99195.72;5060864;28;20037;-59
2024/03/14 09:07:13;;;;;;;0.30;0.30;;;;;;;15.19;87.78;99203.78;5037375;28;20617;-58
2024/03/14 09:09:40;;;;;;;0.20;0.20;;;;;;;14.86;89.39;99196.00;5072121;28;20040;-56
2024/03/14 09:12:13;;;;;;;0.17;0.17;;;;;;;16.20;81.74;99201.78;5041538;28;20090;-57
2024/03/14 09:14:42;;;;;;;0.10;0.10;;;;;;;14.80;85.20;99197.09;5040616;28;20041;-57
2024/03/14 09:17:11;;;;;;;0.15;0.15;;;;;;;16.00;83.24;99193.75;5043356;28;20040;-59
2024/03/14 09:19:39;;;;;;;0.10;0.10;;;;;;;16.26;80.38;99195.22;5029980;28;20060;-57
2024/03/14 09:22:06;;;;;;;0.10;0.10;;;;;;;13.95;90.14;99200.19;5036117;28;20397;-57
2024/03/14 09:24:33;;;;;;;0.10;0.10;;;;;;;15.14;89.17;99191.09;5040899;28;20056;-57
2024/03/14 09:27:02;;;;;;;0.20;0.20;;;;;;;15.58;84.04;99195.84;5037496;28;20149;-58
2024/03/14 09:29:30;;;;;;;0.10;0.10;;;;;;;14.38;91.56;99189.22;5041849;28;20495;-58
2024/03/14 09:31:59;;;;;;;0.20;0.20;;;;;;;16.47;80.36;99190.47;5042316;28;20072;-58
2024/03/14 09:34:27;;;;;;;0.10;0.10;;;;;;;16.57;81.84;99190.44;5032785;28;20147;-58
2024/03/14 09:36:55;;;;;;;0.10;0.10;;;;;;;16.37;77.93;99191.38;5050409;28;20045;-58
2024/03/14 09:39:22;;;;;;;0.05;0.05;;;;;;;16.29;83.58;99183.03;5034803;28;20713;-57
2024/03/14 09:41:50;;;;;;;0.10;0.10;;;;;;;15.93;81.41;99186.78;5040774;28;20051;-57
2024/03/14 09:44:18;;;;;;;0.10;0.10;;;;;;;14.82;86.06;99189.50;5035934;28;20051;-57
2024/03/14 09:46:45;;;;;;;0.10;0.10;;;;;;;14.49;91.56;99190.03;5022069;28;20522;-57
2024/03/14 09:49:13;;;;;;;0.10;0.10;;;;;;;13.72;92.86;99184.47;5032127;28;20053;-57
2024/03/14 09:51:41;;;;;;;0.20;0.20;;;;;;;14.91;88.89;99192.47;5051537;28;20045;-59
2024/03/14 09:54:08;;;;;;;0.20;0.20;;;;;;;14.93;89.64;99184.94;5034823;28;20041;-59
2024/03/14 09:56:35;;;;;;;0.10;0.10;;;;;;;14.46;89.12;99186.78;5047394;28;20057;-59
2024/03/14 09:59:02;;;;;;;0.10;0.10;;;;;;;13.96;92.19;99179.44;5041810;28;20032;-59
2024/03/14 10:01:29;;;;;;;0.20;0.20;;;;;;;14.57;91.32;99181.44;5048992;28;20449;-59
2024/03/14 10:03:57;;;;;;;0.10;0.10;;;;;;;14.23;90.25;99176.53;5043122;28;20048;-59
2024/03/14 10:06:24;;;;;;;0.10;0.10;;;;;;;14.97;88.19;99169.78;5048213;28;20055;-58
2024/03/14 10:08:51;;;;;;;0.20;0.20;;;;;;;14.09;91.23;99175.41;5036335;28;20069;-58
2024/03/14 10:11:20;;;;;;;0.10;0.10;;;;;;;13.99;93.13;99170.81;5019270;28;20486;-58
2024/03/14 10:13:49;;;;;;;0.20;0.20;;;;;;;15.01;88.02;99164.66;5034937;28;20079;-59
2024/03/14 10:16:17;;;;;;;0.20;0.20;;;;;;;14.48;87.83;99161.44;5073077;28;20107;-59
2024/03/14 10:18:46;;;;;;;0.20;0.20;;;;;;;14.81;87.82;99160.91;5034451;28;20049;-59
2024/03/14 10:21:13;;;;;;;0.10;0.10;;;;;;;14.59;86.34;99157.69;5035858;28;20051;-58
2024/03/14 10:23:40;;;;;;;0.10;0.10;;;;;;;15.31;84.43;99159.19;5028538;28;20040;-58
2024/03/14 10:26:09;;;;;;;0.20;0.20;;;;;;;15.14;85.33;99156.00;5028942;28;20051;-58
2024/03/14 10:28:38;;;;;;;0.10;0.10;;;;;;;15.18;84.79;99153.56;5070923;28;20136;-58
2024/03/14 10:31:06;;;;;;;0.10;0.10;;;;;;;15.86;81.27;99161.16;5034668;28;20037;-58
2024/03/14 10:33:33;;;;;;;0.10;0.10;;;;;;;15.68;82.01;99147.16;5037703;28;20052;-59
2024/03/14 10:36:00;;;;;;;0.10;0.10;;;;;;;15.25;82.43;99154.91;5031211;28;20051;-59
2024/03/14 10:38:28;;;;;;;0.13;0.13;;;;;;;15.43;81.01;99152.69;5034215;28;20049;-58
2024/03/14 10:40:57;;;;;;;0.10;0.10;;;;;;;15.86;81.02;99142.22;5036384;28;20053;-58
2024/03/14 10:43:24;;;;;;;0.10;0.10;;;;;;;15.83;78.22;99142.78;5032670;28;20060;-59
2024/03/14 10:45:53;;;;;;;0.10;0.10;;;;;;;15.55;81.67;99145.06;5021799;28;20301;-58
2024/03/14 10:48:24;;;;;;;0.10;0.10;;;;;;;16.11;78.92;99144.75;5030801;28;20094;-58
2024/03/14 10:50:54;;;;;;;0.10;0.10;;;;;;;16.20;77.04;99142.28;5038158;28;20130;-58
2024/03/14 10:53:22;;;;;;;0.10;0.10;;;;;;;16.27;78.77;99131.13;5038621;28;20036;-56
2024/03/14 10:55:50;;;;;;;0.10;0.10;;;;;;;16.12;77.95;99130.16;5016378;28;20094;-59
2024/03/14 10:58:18;;;;;;;0.10;0.10;;;;;;;16.49;76.54;99128.78;5038783;28;20075;-58
2024/03/14 11:00:46;;;;;;;0.10;0.10;;;;;;;16.92;75.24;99126.25;5040833;28;20141;-59
2024/03/14 11:03:17;;;;;;;0.10;0.10;;;;;;;16.27;74.16;99123.03;5036651;28;20419;-59
2024/03/14 11:05:48;;;;;;;0.10;0.10;;;;;;;16.05;75.63;99128.84;5030744;28;20048;-58
2024/03/14 11:08:16;;;;;;;0.10;0.10;;;;;;;16.04;77.78;99128.03;5040691;28;20433;-58
2024/03/14 11:10:44;;;;;;;0.10;0.10;;;;;;;16.09;77.81;99119.91;5039196;28;20135;-58
2024/03/14 11:13:13;;;;;;;0.10;0.10;;;;;;;15.88;79.19;99118.44;5038096;28;20547;-58
2024/03/14 11:15:40;;;;;;;0.00;0.00;;;;;;;15.52;82.48;99107.78;5040069;28;20072;-59
2024/03/14 11:18:07;;;;;;;0.10;0.10;;;;;;;16.01;78.99;99104.28;5037426;28;20069;-58
2024/03/14 11:20:36;;;;;;;0.10;0.10;;;;;;;16.30;78.30;99108.94;5040444;28;20041;-59
2024/03/14 11:23:04;;;;;;;0.10;0.10;;;;;;;16.42;77.35;99103.97;5032689;28;20423;-58
2024/03/14 11:25:32;;;;;;;0.00;0.00;;;;;;;16.42;78.33;99098.56;5028499;28;20131;-59
2024/03/14 11:27:59;;;;;;;0.10;0.10;;;;;;;16.47;76.75;99093.09;5030674;28;21057;-58
2024/03/14 11:30:27;;;;;;;0.10;0.10;;;;;;;16.22;77.02;99088.72;5035829;28;20040;-59
2024/03/14 11:32:55;;;;;;;0.10;0.10;;;;;;;16.31;75.43;99094.34;5010868;28;20045;-59
2024/03/14 11:35:36;;;;;;;0.13;0.13;;;;;;;15.27;80.54;99085.19;5034570;28;20045;-59